Time;durP1;ratioP1;P1;durP2;ratioP2;P2;SDS_P1;SDS_P2;PMS_P1;PMS_P2;Temp;Humidity;BMP_temperature;BMP_pressure;BME280_temperature;BME280_humidity;BME280_pressure;Samples;Min_cycle;Max_cycle;Signal;HPM_P1;HPM_P2
2022/11/17 00:01:23;;;;;;;5.63;2.47;;;10.10;99.90;;;;;;5074235;28;20185;-87
2022/11/17 00:03:50;;;;;;;4.30;2.10;;;10.10;99.90;;;;;;5072725;28;20183;-87
2022/11/17 00:06:19;;;;;;;6.57;2.63;;;10.10;99.90;;;;;;5072140;28;20188;-88
2022/11/17 00:08:45;;;;;;;8.57;3.10;;;10.10;99.90;;;;;;5074065;28;20224;-88
2022/11/17 00:11:10;;;;;;;7.40;2.97;;;10.20;99.90;;;;;;5072428;28;20231;-87
2022/11/17 00:16:21;;;;;;;14.60;2.42;;;10.20;99.90;;;;;;5074277;28;20230;-88
2022/11/17 00:21:32;;;;;;;4.32;2.05;;;10.30;99.90;;;;;;5074372;28;20394;-89
2022/11/17 00:23:58;;;;;;;6.03;1.92;;;10.30;99.90;;;;;;5072472;28;20188;-87
2022/11/17 00:26:34;;;;;;;2.57;1.50;;;10.30;99.90;;;;;;5073738;28;20644;-88
2022/11/17 00:29:01;;;;;;;3.75;1.30;;;10.30;99.90;;;;;;5055932;28;20176;-86
2022/11/17 00:34:18;;;;;;;4.53;1.80;;;10.30;99.90;;;;;;5073846;28;20184;-86
2022/11/17 00:36:46;;;;;;;7.78;1.98;;;10.30;99.90;;;;;;5073213;28;20181;-86
2022/11/17 00:39:14;;;;;;;2.75;1.90;;;10.30;99.90;;;;;;5072419;28;20635;-87
2022/11/17 00:41:40;;;;;;;5.32;1.73;;;10.30;99.90;;;;;;5074064;28;20187;-86
2022/11/17 00:44:06;;;;;;;4.83;1.57;;;10.20;99.90;;;;;;5071968;28;20177;-85
2022/11/17 00:46:33;;;;;;;3.13;1.70;;;10.20;99.90;;;;;;5072373;28;20443;-84
2022/11/17 00:48:59;;;;;;;7.30;1.50;;;10.20;99.90;;;;;;5055267;28;20188;-84
2022/11/17 00:51:25;;;;;;;3.20;1.77;;;10.20;99.90;;;;;;5072570;28;20197;-84
2022/11/17 00:53:51;;;;;;;2.47;1.23;;;10.20;99.90;;;;;;5072435;28;20238;-85
2022/11/17 00:56:17;;;;;;;3.58;1.60;;;10.10;99.90;;;;;;5051993;28;20439;-84
2022/11/17 00:58:43;;;;;;;3.40;1.60;;;10.10;99.90;;;;;;5069873;28;20200;-84
2022/11/17 01:01:09;;;;;;;8.05;2.30;;;10.10;99.90;;;;;;5071776;28;20433;-83
2022/11/17 01:03:35;;;;;;;2.88;1.67;;;10.00;99.90;;;;;;5073125;28;20185;-83
2022/11/17 01:06:05;;;;;;;3.70;1.53;;;10.00;99.90;;;;;;5072989;28;20188;-84
2022/11/17 01:08:31;;;;;;;3.65;1.80;;;10.00;99.90;;;;;;5073472;28;20502;-84
2022/11/17 01:11:13;;;;;;;6.83;2.40;;;10.00;99.90;;;;;;5073222;28;20236;-83
2022/11/17 01:13:40;;;;;;;3.42;1.20;;;10.00;99.90;;;;;;5072856;28;20749;-84
2022/11/17 01:16:14;;;;;;;3.92;2.58;;;10.00;99.90;;;;;;5073208;28;20264;-85
2022/11/17 01:18:41;;;;;;;3.50;1.27;;;10.00;99.90;;;;;;5073612;28;20168;-83
2022/11/17 01:21:16;;;;;;;2.28;1.20;;;10.00;99.90;;;;;;5055047;28;20189;-85
2022/11/17 01:23:43;;;;;;;2.42;1.52;;;10.00;99.90;;;;;;5072322;28;20169;-86
2022/11/17 01:26:15;;;;;;;2.95;1.70;;;10.00;99.90;;;;;;5075559;28;20192;-87
2022/11/17 01:28:42;;;;;;;2.30;1.20;;;10.00;99.90;;;;;;5075563;28;20179;-86
2022/11/17 01:31:10;;;;;;;1.25;1.08;;;10.10;99.90;;;;;;5075202;28;20303;-84
2022/11/17 01:33:36;;;;;;;2.65;1.13;;;10.10;99.90;;;;;;5076957;28;20260;-86
2022/11/17 01:36:16;;;;;;;3.50;1.00;;;10.10;99.90;;;;;;5075519;28;20267;-86
2022/11/17 01:38:42;;;;;;;4.32;1.30;;;10.10;99.90;;;;;;5075349;28;20276;-86
2022/11/17 01:41:23;;;;;;;1.73;1.10;;;10.10;99.90;;;;;;5059703;28;20189;-86
2022/11/17 01:43:54;;;;;;;3.22;1.23;;;10.10;99.90;;;;;;5077697;28;20234;-85
2022/11/17 01:46:32;;;;;;;1.20;1.08;;;10.10;99.90;;;;;;5075976;28;20275;-85
2022/11/17 01:49:10;;;;;;;2.30;1.35;;;10.10;99.90;;;;;;5076676;28;20251;-85
2022/11/17 01:51:40;;;;;;;4.53;1.65;;;10.10;99.90;;;;;;5076600;28;20222;-87
2022/11/17 01:54:08;;;;;;;2.17;1.10;;;10.20;99.90;;;;;;5076309;28;20181;-87
2022/11/17 01:56:38;;;;;;;2.15;1.13;;;10.20;99.90;;;;;;5075252;28;20185;-86
2022/11/17 01:59:31;;;;;;;3.28;0.95;;;10.20;99.90;;;;;;5076322;28;20197;-87
2022/11/17 02:01:57;;;;;;;3.00;0.90;;;10.20;99.90;;;;;;5055148;28;20279;-85
2022/11/17 02:04:37;;;;;;;2.58;1.10;;;10.20;99.90;;;;;;5038593;28;20185;-85
2022/11/17 02:07:16;;;;;;;2.42;1.02;;;10.20;99.90;;;;;;5054544;28;20192;-86
2022/11/17 02:09:43;;;;;;;1.98;1.20;;;10.20;99.90;;;;;;5056215;28;20237;-86
2022/11/17 02:12:12;;;;;;;1.90;0.80;;;10.20;99.90;;;;;;5054518;28;20288;-86
2022/11/17 02:14:38;;;;;;;1.70;0.80;;;10.30;99.90;;;;;;5063405;28;20188;-84
2022/11/17 02:17:07;;;;;;;2.20;1.00;;;10.20;99.90;;;;;;5076122;28;20189;-85
2022/11/17 02:19:39;;;;;;;1.98;0.98;;;10.30;99.90;;;;;;5058934;28;20256;-86
2022/11/17 02:22:43;;;;;;;1.48;0.88;;;10.30;99.90;;;;;;5075653;28;20187;-86
2022/11/17 02:25:11;;;;;;;2.35;1.02;;;10.30;99.90;;;;;;5074370;28;20306;-84
2022/11/17 02:28:16;;;;;;;1.60;0.90;;;10.30;99.90;;;;;;5055747;28;20486;-85
2022/11/17 02:30:48;;;;;;;2.15;1.10;;;10.30;99.90;;;;;;5055699;28;20201;-86
2022/11/17 02:33:29;;;;;;;4.32;1.10;;;10.30;99.90;;;;;;5055232;28;20180;-86
2022/11/17 02:36:01;;;;;;;1.48;0.90;;;10.30;99.90;;;;;;5053797;28;20518;-86
2022/11/17 02:38:51;;;;;;;2.78;0.90;;;10.20;99.90;;;;;;5054506;28;20276;-85
2022/11/17 02:41:28;;;;;;;5.85;1.40;;;10.20;99.90;;;;;;5071844;28;20626;-84
2022/11/17 02:44:03;;;;;;;2.17;0.88;;;10.20;99.90;;;;;;5075869;28;20215;-85
2022/11/17 02:46:37;;;;;;;6.82;1.00;;;10.20;99.90;;;;;;5075532;28;20240;-85
2022/11/17 02:49:10;;;;;;;1.13;0.90;;;10.20;99.90;;;;;;5075448;28;20168;-85
2022/11/17 02:51:37;;;;;;;1.00;0.90;;;10.20;99.90;;;;;;5074260;28;20207;-84
2022/11/17 02:54:03;;;;;;;1.10;0.90;;;10.30;99.90;;;;;;5056976;28;20548;-85
2022/11/17 02:56:28;;;;;;;2.20;0.90;;;10.20;99.90;;;;;;5057405;28;20185;-86
2022/11/17 02:58:59;;;;;;;0.97;0.80;;;10.20;99.90;;;;;;5075691;28;20196;-84
2022/11/17 03:01:36;;;;;;;2.55;0.65;;;10.30;99.90;;;;;;5076202;28;20161;-86
2022/11/17 03:04:26;;;;;;;2.13;1.00;;;10.30;99.90;;;;;;5073589;28;20184;-85
2022/11/17 03:07:31;;;;;;;2.10;0.80;;;10.30;99.90;;;;;;5076745;28;20244;-87
2022/11/17 03:10:05;;;;;;;1.70;0.70;;;10.30;99.90;;;;;;5075658;28;20224;-84
2022/11/17 03:12:45;;;;;;;3.38;1.02;;;10.30;99.90;;;;;;5076585;28;20195;-87
2022/11/17 03:15:29;;;;;;;1.40;0.90;;;10.40;99.90;;;;;;5074788;28;20667;-87
2022/11/17 03:18:06;;;;;;;0.70;0.60;;;10.40;99.90;;;;;;5074556;28;20199;-86
2022/11/17 03:20:48;;;;;;;1.55;0.80;;;10.40;99.90;;;;;;5075022;28;20179;-88
2022/11/17 03:23:19;;;;;;;1.00;0.77;;;10.40;99.90;;;;;;5074730;28;20206;-86
2022/11/17 03:25:50;;;;;;;1.00;0.65;;;10.30;99.90;;;;;;5073480;28;20180;-88
2022/11/17 03:28:18;;;;;;;1.30;0.60;;;10.30;99.90;;;;;;5073391;28;20173;-87
2022/11/17 03:30:46;;;;;;;2.58;0.85;;;10.30;99.90;;;;;;5074651;28;20288;-85
2022/11/17 03:33:19;;;;;;;0.73;0.60;;;10.30;99.90;;;;;;5074302;28;20576;-86
2022/11/17 03:35:53;;;;;;;0.75;0.63;;;10.30;99.90;;;;;;5073331;28;20177;-86
2022/11/17 03:38:23;;;;;;;0.98;0.70;;;10.30;99.90;;;;;;5072664;28;20191;-85
2022/11/17 03:40:51;;;;;;;0.70;0.60;;;10.20;99.90;;;;;;5074282;28;20260;-88
2022/11/17 03:43:19;;;;;;;2.05;0.70;;;10.20;99.90;;;;;;5073859;28;20235;-87
2022/11/17 03:45:48;;;;;;;0.90;0.70;;;10.20;99.90;;;;;;5056354;28;20180;-88
2022/11/17 03:48:48;;;;;;;0.70;0.60;;;10.20;99.90;;;;;;5072957;28;20173;-88
2022/11/17 03:51:18;;;;;;;1.15;0.70;;;10.10;99.90;;;;;;5073921;28;20250;-87
2022/11/17 03:53:45;;;;;;;0.70;0.50;;;10.10;99.90;;;;;;5074760;28;20536;-86
2022/11/17 03:56:25;;;;;;;0.70;0.57;;;10.10;99.90;;;;;;5056245;28;20593;-86
2022/11/17 03:59:01;;;;;;;2.55;0.85;;;10.00;99.90;;;;;;5074314;28;20199;-87
2022/11/17 04:01:29;;;;;;;0.95;0.60;;;10.00;99.90;;;;;;5073431;28;20234;-88
2022/11/17 04:03:55;;;;;;;2.47;0.73;;;10.00;99.90;;;;;;5074066;28;20181;-88
2022/11/17 04:06:21;;;;;;;4.80;0.80;;;10.00;99.90;;;;;;5073740;28;20204;-88
2022/11/17 04:08:46;;;;;;;1.93;0.60;;;9.90;99.90;;;;;;5055941;28;20228;-89
2022/11/17 04:16:40;;;;;;;4.30;0.80;;;9.80;99.90;;;;;;5074036;28;20603;-88
2022/11/17 04:19:06;;;;;;;0.80;0.60;;;9.80;99.90;;;;;;5073407;28;20169;-83
2022/11/17 04:21:32;;;;;;;1.20;0.70;;;9.80;99.90;;;;;;5072455;28;20184;-86
2022/11/17 04:23:57;;;;;;;1.47;0.80;;;9.90;99.90;;;;;;5055722;28;20525;-86
2022/11/17 04:29:07;;;;;;;1.00;0.80;;;9.90;99.90;;;;;;5072550;28;20222;-85
2022/11/17 04:31:33;;;;;;;1.20;0.80;;;9.90;99.90;;;;;;5073161;28;20239;-86
2022/11/17 04:34:01;;;;;;;1.07;0.70;;;10.00;99.90;;;;;;5073403;28;20651;-87
2022/11/17 04:36:39;;;;;;;1.00;0.70;;;10.00;99.90;;;;;;5072895;28;20173;-87
2022/11/17 04:39:05;;;;;;;1.27;0.77;;;10.00;99.90;;;;;;5071610;28;20246;-87
2022/11/17 04:44:18;;;;;;;3.05;0.98;;;10.20;99.90;;;;;;5072726;28;20196;-88
2022/11/17 04:46:45;;;;;;;2.85;1.00;;;10.20;99.90;;;;;;5072975;28;20509;-88
2022/11/17 04:49:12;;;;;;;1.33;1.05;;;10.30;99.90;;;;;;5054827;28;20279;-86
2022/11/17 04:51:38;;;;;;;3.50;0.95;;;10.30;99.90;;;;;;5071712;28;20688;-86
2022/11/17 04:54:05;;;;;;;2.00;1.00;;;10.40;99.90;;;;;;5072841;28;20644;-87
2022/11/17 04:56:31;;;;;;;3.35;1.15;;;10.50;99.90;;;;;;5072523;28;20181;-88
2022/11/17 04:58:57;;;;;;;3.33;1.30;;;10.60;99.90;;;;;;5072052;28;20664;-88
2022/11/17 05:01:24;;;;;;;3.93;1.20;;;10.60;99.90;;;;;;5058336;28;20793;-88
2022/11/17 05:03:51;;;;;;;2.05;0.93;;;10.60;99.90;;;;;;5072736;28;20629;-87
2022/11/17 05:06:30;;;;;;;6.88;1.52;;;10.60;99.90;;;;;;5055030;28;20246;-88
2022/11/17 05:08:57;;;;;;;4.93;1.10;;;10.70;99.90;;;;;;5056668;28;20228;-87
2022/11/17 05:14:09;;;;;;;1.48;0.90;;;10.70;99.90;;;;;;5055351;28;20181;-86
2022/11/17 05:19:20;;;;;;;3.63;1.10;;;10.70;99.90;;;;;;5074862;28;20171;-86
2022/11/17 05:21:46;;;;;;;1.13;1.00;;;10.60;99.90;;;;;;5074929;28;20240;-85
2022/11/17 05:24:13;;;;;;;1.70;0.93;;;10.60;99.90;;;;;;5074665;28;20184;-84
2022/11/17 05:26:39;;;;;;;2.20;0.88;;;10.50;99.90;;;;;;5076356;28;20646;-83
2022/11/17 05:29:06;;;;;;;1.65;0.90;;;10.50;99.90;;;;;;5075247;28;20234;-82
2022/11/17 05:31:32;;;;;;;2.47;1.20;;;10.50;99.90;;;;;;5075426;28;20207;-83
2022/11/17 05:33:59;;;;;;;1.47;1.00;;;10.50;99.90;;;;;;5057565;28;20590;-84
2022/11/17 05:36:25;;;;;;;3.25;1.30;;;10.40;99.90;;;;;;5074631;28;20407;-83
2022/11/17 05:38:52;;;;;;;4.50;1.30;;;10.40;99.90;;;;;;5074761;28;20275;-82
2022/11/17 05:41:18;;;;;;;2.70;1.05;;;10.40;99.90;;;;;;5058256;28;20254;-83
2022/11/17 05:43:44;;;;;;;3.47;1.10;;;10.40;99.90;;;;;;5076285;28;20239;-82
2022/11/17 05:46:10;;;;;;;3.05;1.10;;;10.40;99.90;;;;;;5076086;28;20184;-83
2022/11/17 05:48:36;;;;;;;4.65;1.00;;;10.40;99.90;;;;;;5057990;28;20193;-82
2022/11/17 05:51:02;;;;;;;4.07;0.97;;;10.30;99.90;;;;;;5074617;28;20208;-82
2022/11/17 05:53:28;;;;;;;1.15;0.70;;;10.30;99.90;;;;;;5074357;28;20442;-83
2022/11/17 05:56:19;;;;;;;4.05;1.25;;;10.30;99.90;;;;;;5074637;28;20177;-84
2022/11/17 05:58:48;;;;;;;2.28;1.33;;;10.30;99.90;;;;;;5074808;28;20180;-83
2022/11/17 06:01:16;;;;;;;6.30;1.20;;;10.30;99.90;;;;;;5075777;28;20517;-84
2022/11/17 06:03:47;;;;;;;3.10;1.20;;;10.20;99.90;;;;;;5074329;28;20552;-84
2022/11/17 06:06:12;;;;;;;3.38;1.40;;;10.20;99.90;;;;;;5075775;28;20161;-84
2022/11/17 06:08:38;;;;;;;1.70;0.90;;;10.20;99.90;;;;;;5057359;28;20232;-85
2022/11/17 06:11:04;;;;;;;1.20;0.87;;;10.10;99.90;;;;;;5074535;28;20196;-85
2022/11/17 06:13:30;;;;;;;5.07;1.50;;;10.10;99.90;;;;;;5073964;28;20185;-86
2022/11/17 06:15:57;;;;;;;3.30;1.10;;;10.10;99.90;;;;;;5053993;28;20433;-86
2022/11/17 06:18:31;;;;;;;3.38;1.30;;;10.00;99.90;;;;;;5055607;28;20185;-86
2022/11/17 06:20:56;;;;;;;3.45;1.20;;;10.10;99.90;;;;;;5055363;28;20228;-86
2022/11/17 06:23:27;;;;;;;2.70;1.00;;;10.00;99.90;;;;;;5054059;28;20178;-86
2022/11/17 06:25:53;;;;;;;1.58;1.30;;;10.00;99.90;;;;;;5055537;28;20158;-88
2022/11/17 06:28:21;;;;;;;3.10;1.35;;;10.00;99.90;;;;;;5053543;28;20174;-87
2022/11/17 06:30:48;;;;;;;3.58;1.10;;;10.00;99.90;;;;;;5055212;28;20267;-87
2022/11/17 06:33:16;;;;;;;7.28;1.65;;;10.00;99.90;;;;;;5053970;28;20196;-88
2022/11/17 06:35:42;;;;;;;4.07;1.50;;;10.00;99.90;;;;;;5055103;28;20195;-87
2022/11/17 06:38:08;;;;;;;3.15;1.30;;;10.00;99.90;;;;;;5055059;28;20567;-88
2022/11/17 06:40:34;;;;;;;5.27;1.53;;;10.00;99.90;;;;;;5053300;28;20174;-88
2022/11/17 06:43:07;;;;;;;5.57;1.93;;;10.00;99.90;;;;;;5053500;28;20555;-87
2022/11/17 06:45:33;;;;;;;4.03;1.48;;;10.00;99.90;;;;;;5053405;28;20166;-88
2022/11/17 06:47:59;;;;;;;6.03;1.77;;;10.00;99.90;;;;;;5073021;28;20205;-88
2022/11/17 06:50:25;;;;;;;3.27;1.50;;;10.00;99.90;;;;;;5073812;28;20614;-88
2022/11/17 06:52:51;;;;;;;1.40;1.30;;;10.00;99.90;;;;;;5074415;28;20233;-89
2022/11/17 06:55:17;;;;;;;8.23;1.87;;;10.00;99.90;;;;;;5056075;28;20257;-88
2022/11/17 06:57:43;;;;;;;4.75;1.17;;;10.00;99.90;;;;;;5073301;28;20184;-89
2022/11/17 07:00:09;;;;;;;4.50;1.23;;;10.00;99.90;;;;;;5056457;28;20195;-89
2022/11/17 07:02:36;;;;;;;2.20;1.30;;;10.00;99.90;;;;;;5055748;28;20419;-89
2022/11/17 07:05:01;;;;;;;5.32;1.27;;;9.90;99.90;;;;;;5056657;28;20189;-90
2022/11/17 07:07:27;;;;;;;4.30;1.23;;;10.00;99.90;;;;;;5056223;28;20181;-89
2022/11/17 07:09:52;;;;;;;2.60;0.90;;;10.00;99.90;;;;;;5074597;28;20225;-90
2022/11/17 07:12:18;;;;;;;1.17;0.80;;;10.00;99.90;;;;;;5074548;28;20212;-90
2022/11/17 07:14:44;;;;;;;3.50;1.00;;;10.00;99.90;;;;;;5073352;28;20185;-90
2022/11/17 07:17:09;;;;;;;1.40;1.00;;;10.00;99.90;;;;;;5074368;28;20181;-91
2022/11/17 07:19:35;;;;;;;2.33;1.00;;;10.00;99.90;;;;;;5057168;28;20528;-91
2022/11/17 07:22:02;;;;;;;1.37;0.70;;;10.00;99.90;;;;;;5073324;28;20284;-91
2022/11/17 07:24:27;;;;;;;1.40;0.80;;;10.00;99.90;;;;;;5075296;28;20211;-91
2022/11/17 07:26:53;;;;;;;3.90;0.70;;;10.00;99.90;;;;;;5057866;28;20177;-92
2022/11/17 07:29:18;;;;;;;4.53;0.90;;;10.00;99.90;;;;;;5074652;28;20185;-90
2022/11/17 07:31:44;;;;;;;2.83;0.60;;;10.00;99.90;;;;;;5062244;28;20311;-91
2022/11/17 07:34:09;;;;;;;1.80;0.90;;;10.00;99.90;;;;;;5074326;28;20544;-92
2022/11/17 07:36:35;;;;;;;2.03;0.57;;;10.00;99.90;;;;;;5075496;28;20203;-92
2022/11/17 07:39:00;;;;;;;3.37;0.77;;;10.00;99.90;;;;;;5075347;28;20707;-92
2022/11/17 07:41:26;;;;;;;1.43;0.90;;;10.10;99.90;;;;;;5058299;28;20556;-92
2022/11/17 07:43:51;;;;;;;1.67;0.70;;;10.10;99.90;;;;;;5059784;28;20196;-92
2022/11/17 07:46:17;;;;;;;1.70;0.70;;;10.20;99.90;;;;;;5075578;28;20716;-93
2022/11/17 07:48:44;;;;;;;0.70;0.60;;;10.10;99.90;;;;;;5077657;28;20189;-93
2022/11/17 07:51:11;;;;;;;2.28;1.05;;;10.20;99.90;;;;;;5059653;28;20201;-94
2022/11/17 07:53:36;;;;;;;6.15;0.98;;;10.20;99.90;;;;;;5060878;28;20193;-93
2022/11/17 07:56:08;;;;;;;1.30;0.67;;;10.20;99.90;;;;;;5076952;28;20211;-92
2022/11/17 07:58:34;;;;;;;1.40;0.65;;;10.20;99.90;;;;;;5076110;28;20252;-94
2022/11/17 08:01:04;;;;;;;1.38;0.80;;;10.30;99.90;;;;;;5075356;28;20189;-93
2022/11/17 08:03:30;;;;;;;2.22;1.30;;;10.30;99.90;;;;;;5076357;28;20302;-92
2022/11/17 08:05:56;;;;;;;2.83;0.97;;;10.40;99.90;;;;;;5078203;28;20626;-93
2022/11/17 08:08:22;;;;;;;1.30;0.80;;;10.40;99.90;;;;;;5059682;28;20230;-91
2022/11/17 08:10:48;;;;;;;2.03;0.80;;;10.40;99.90;;;;;;5076244;28;20196;-93
2022/11/17 08:13:14;;;;;;;2.73;0.90;;;10.40;99.90;;;;;;5059100;28;20438;-93
2022/11/17 08:15:40;;;;;;;1.98;0.70;;;10.40;99.90;;;;;;5058143;28;20180;-94
2022/11/17 08:18:05;;;;;;;3.03;0.87;;;10.50;99.90;;;;;;5076448;28;20179;-94
2022/11/17 08:20:31;;;;;;;2.03;0.80;;;10.40;99.90;;;;;;5058891;28;20180;-91
2022/11/17 08:22:57;;;;;;;2.20;1.03;;;10.40;99.90;;;;;;5075082;28;20234;-91
2022/11/17 08:25:25;;;;;;;3.25;0.95;;;10.40;99.90;;;;;;5075736;28;20172;-92
2022/11/17 08:27:54;;;;;;;2.53;0.82;;;10.50;99.90;;;;;;5075560;28;20249;-94
2022/11/17 08:30:20;;;;;;;1.98;0.90;;;10.50;99.90;;;;;;5076661;28;20177;-94
2022/11/17 08:32:51;;;;;;;2.30;0.80;;;10.50;99.90;;;;;;5075773;28;20208;-93
2022/11/17 08:35:19;;;;;;;1.25;0.80;;;10.60;99.90;;;;;;5076376;28;20434;-91
2022/11/17 08:37:45;;;;;;;1.17;0.68;;;10.60;99.90;;;;;;5077409;28;20632;-94
2022/11/17 08:40:12;;;;;;;3.33;1.00;;;10.70;99.90;;;;;;5076469;28;20238;-93
2022/11/17 08:42:38;;;;;;;1.17;0.80;;;10.60;99.90;;;;;;5061549;28;20188;-93
2022/11/17 08:45:07;;;;;;;3.43;1.10;;;10.70;99.90;;;;;;5078397;28;20181;-93
2022/11/17 08:47:33;;;;;;;2.15;1.05;;;10.70;99.90;;;;;;5076995;28;20204;-93
2022/11/17 08:49:58;;;;;;;4.20;1.27;;;10.80;99.90;;;;;;5077175;28;20176;-93
2022/11/17 08:52:26;;;;;;;0.90;0.63;;;10.90;99.90;;;;;;5061047;28;20458;-92
2022/11/17 08:54:51;;;;;;;1.00;0.80;;;11.00;99.90;;;;;;5082413;28;20222;-91
2022/11/17 08:57:17;;;;;;;2.07;0.80;;;11.20;99.90;;;;;;5079277;28;20181;-94
2022/11/17 08:59:43;;;;;;;1.40;0.70;;;11.30;99.90;;;;;;5079639;28;20181;-94
2022/11/17 09:02:11;;;;;;;1.83;0.70;;;11.40;99.90;;;;;;5078384;28;20189;-93
2022/11/17 09:04:36;;;;;;;1.90;0.80;;;11.50;99.90;;;;;;5080940;28;20177;-94
2022/11/17 09:07:02;;;;;;;1.30;0.80;;;11.60;99.90;;;;;;5080862;28;20208;-93
2022/11/17 09:09:30;;;;;;;2.33;0.90;;;11.80;99.90;;;;;;5082162;28;20233;-92
2022/11/17 09:11:56;;;;;;;2.50;0.73;;;12.00;99.90;;;;;;5088274;28;20276;-93
2022/11/17 09:14:21;;;;;;;0.80;0.60;;;12.00;99.90;;;;;;5081926;28;20891;-93
2022/11/17 09:16:47;;;;;;;4.33;0.70;;;12.10;99.90;;;;;;5067954;28;20476;-92
2022/11/17 09:19:14;;;;;;;1.43;0.60;;;12.00;99.90;;;;;;5066430;28;20199;-93
2022/11/17 09:21:39;;;;;;;4.90;0.77;;;12.00;99.90;;;;;;5083704;28;20798;-92
2022/11/17 09:24:05;;;;;;;1.30;0.60;;;12.00;99.90;;;;;;5065024;28;20423;-91
2022/11/17 09:26:31;;;;;;;2.63;0.80;;;12.00;99.90;;;;;;5086603;28;20177;-92
2022/11/17 09:29:01;;;;;;;2.63;0.57;;;11.90;99.90;;;;;;5081703;28;20906;-94
2022/11/17 09:31:26;;;;;;;2.60;0.97;;;12.00;99.90;;;;;;5089196;28;20188;-93
2022/11/17 09:33:52;;;;;;;0.70;0.50;;;12.00;99.90;;;;;;5084437;28;20416;-95
2022/11/17 09:36:18;;;;;;;1.67;0.83;;;12.00;99.90;;;;;;5086286;28;20185;-94
2022/11/17 09:38:45;;;;;;;1.20;0.60;;;12.10;99.90;;;;;;5074487;28;20415;-92
2022/11/17 09:41:23;;;;;;;1.10;0.50;;;12.20;99.90;;;;;;5092437;28;20192;-86
2022/11/17 09:44:12;;;;;;;3.90;0.60;;;12.20;99.90;;;;;;5102524;22;20491;-95
2022/11/17 09:49:30;;;;;;;2.03;0.87;;;12.30;99.90;;;;;;5248083;22;20227;-93
2022/11/17 09:52:02;;;;;;;0.77;0.70;;;12.40;99.90;;;;;;5086548;28;20474;-93
2022/11/17 09:54:55;;;;;;;2.50;0.80;;;12.40;99.90;;;;;;5100701;28;20458;-86
2022/11/17 09:57:47;;;;;;;1.67;0.50;;;12.40;99.90;;;;;;5103857;28;20498;-93
2022/11/17 10:00:21;;;;;;;0.83;0.60;;;12.40;99.90;;;;;;5088441;28;20406;-91
2022/11/17 10:02:47;;;;;;;2.50;0.60;;;12.40;99.90;;;;;;5103735;28;20486;-91
2022/11/17 10:05:15;;;;;;;3.60;0.80;;;12.40;99.90;;;;;;5125724;28;20457;-92
2022/11/17 10:08:05;;;;;;;1.20;0.70;;;12.40;99.90;;;;;;5123988;28;20418;-92
2022/11/17 10:10:51;;;;;;;2.10;0.80;;;12.40;99.90;;;;;;5078183;28;20458;-86
2022/11/17 10:13:30;;;;;;;2.70;0.70;;;12.50;99.90;;;;;;5096228;28;20422;-85
2022/11/17 10:16:06;;;;;;;2.07;0.80;;;12.40;99.90;;;;;;5112395;28;20469;-87
2022/11/17 10:18:35;;;;;;;1.60;0.60;;;12.40;99.90;;;;;;5111962;28;20495;-84
2022/11/17 10:21:01;;;;;;;1.87;0.70;;;12.40;99.90;;;;;;5096300;28;20418;-83
2022/11/17 10:23:33;;;;;;;1.00;0.70;;;12.40;99.90;;;;;;5112099;28;20475;-85
2022/11/17 10:25:59;;;;;;;1.73;0.80;;;12.40;99.90;;;;;;5096376;28;20454;-84
2022/11/17 10:28:29;;;;;;;1.63;0.63;;;12.50;99.90;;;;;;5111522;28;20510;-84
2022/11/17 10:31:31;;;;;;;1.00;0.60;;;12.50;99.90;;;;;;5096039;28;20199;-85
2022/11/17 10:33:56;;;;;;;0.83;0.60;;;12.50;99.90;;;;;;5072495;28;20769;-84
2022/11/17 10:36:29;;;;;;;1.97;0.90;;;12.40;99.90;;;;;;5078046;28;20403;-84
2022/11/17 10:38:57;;;;;;;0.67;0.50;;;12.50;99.90;;;;;;5087885;28;20184;-84
2022/11/17 10:41:28;;;;;;;0.97;0.63;;;12.40;99.90;;;;;;5084410;28;20439;-85
2022/11/17 10:44:03;;;;;;;1.97;0.77;;;12.40;99.90;;;;;;5087740;28;20453;-84
2022/11/17 10:46:29;;;;;;;1.47;0.70;;;12.40;99.90;;;;;;5111148;28;20418;-85
2022/11/17 10:49:00;;;;;;;1.70;0.83;;;12.30;99.90;;;;;;5060759;28;21102;-84
2022/11/17 10:51:31;;;;;;;1.57;0.70;;;12.40;99.90;;;;;;5061217;28;20472;-84
2022/11/17 10:54:20;;;;;;;3.80;0.93;;;12.40;99.90;;;;;;5111931;28;20778;-85
2022/11/17 10:56:49;;;;;;;0.70;0.50;;;12.50;99.90;;;;;;5110707;28;20903;-85
2022/11/17 10:59:27;;;;;;;0.90;0.50;;;12.50;99.90;;;;;;5111236;28;20429;-84
2022/11/17 11:01:52;;;;;;;1.58;0.77;;;12.50;99.90;;;;;;5110958;28;20453;-85
2022/11/17 11:04:40;;;;;;;1.27;0.50;;;12.50;99.90;;;;;;5077402;28;20257;-84
2022/11/17 11:07:10;;;;;;;1.80;0.70;;;12.50;99.90;;;;;;5111385;28;20179;-87
2022/11/17 11:09:44;;;;;;;4.20;1.00;;;12.50;99.90;;;;;;5095231;28;20776;-87
2022/11/17 11:12:15;;;;;;;1.73;0.70;;;12.50;99.90;;;;;;5111076;28;20461;-85
2022/11/17 11:14:47;;;;;;;0.97;0.60;;;12.60;99.90;;;;;;5095095;28;21003;-85
2022/11/17 11:17:15;;;;;;;1.23;0.70;;;12.60;99.90;;;;;;5077070;28;20430;-85
2022/11/17 11:19:52;;;;;;;2.50;0.70;;;12.60;99.90;;;;;;5110603;28;20442;-85
2022/11/17 11:22:32;;;;;;;3.60;0.80;;;12.70;99.90;;;;;;5111114;28;20418;-85
2022/11/17 11:25:32;;;;;;;1.00;0.80;;;12.70;99.90;;;;;;5077139;28;20890;-85
2022/11/17 11:28:35;;;;;;;1.47;0.60;;;12.70;99.90;;;;;;5077045;28;20414;-85
2022/11/17 11:31:31;;;;;;;2.60;0.70;;;12.70;99.90;;;;;;5110810;28;20461;-83
2022/11/17 11:34:32;;;;;;;1.23;0.73;;;12.70;99.90;;;;;;5110338;28;20414;-84
2022/11/17 11:37:06;;;;;;;0.90;0.63;;;12.70;99.90;;;;;;5111230;28;20599;-84
2022/11/17 11:39:48;;;;;;;1.83;0.67;;;12.70;99.90;;;;;;5094735;28;20902;-86
2022/11/17 11:42:38;;;;;;;1.00;0.73;;;12.70;99.90;;;;;;5094640;28;20401;-84
2022/11/17 11:45:28;;;;;;;2.53;0.73;;;12.70;99.90;;;;;;5110558;28;20418;-85
2022/11/17 11:47:59;;;;;;;2.00;0.70;;;12.80;99.90;;;;;;5076113;28;20520;-84
2022/11/17 11:50:32;;;;;;;2.70;0.80;;;12.80;99.90;;;;;;5094867;28;20422;-85
2022/11/17 11:53:12;;;;;;;2.90;0.90;;;12.90;99.90;;;;;;5094546;28;20398;-84
2022/11/17 11:55:40;;;;;;;1.23;0.80;;;13.10;99.90;;;;;;5109794;28;20501;-84
2022/11/17 11:58:21;;;;;;;1.63;0.60;;;13.20;99.90;;;;;;5110394;28;20756;-85
2022/11/17 12:01:14;;;;;;;3.67;0.77;;;13.70;99.90;;;;;;5110839;28;20418;-84
2022/11/17 12:03:53;;;;;;;0.90;0.60;;;13.80;99.90;;;;;;5057781;28;20926;-85
2022/11/17 12:07:00;;;;;;;2.70;1.03;;;13.80;99.90;;;;;;5094823;28;20477;-84
2022/11/17 12:09:34;;;;;;;1.00;0.60;;;13.60;99.90;;;;;;5109038;28;20920;-85
2022/11/17 12:12:06;;;;;;;4.33;0.80;;;13.40;99.90;;;;;;5110276;28;21011;-83
2022/11/17 12:14:35;;;;;;;1.73;0.80;;;13.30;99.90;;;;;;5077162;28;20763;-83
2022/11/17 12:17:12;;;;;;;3.80;0.90;;;13.20;99.90;;;;;;5109726;28;20433;-84
2022/11/17 12:19:52;;;;;;;1.83;0.70;;;13.20;99.90;;;;;;5109567;28;20424;-84
2022/11/17 12:22:31;;;;;;;1.60;0.87;;;13.10;99.90;;;;;;5094311;28;20413;-83
2022/11/17 12:25:17;;;;;;;3.33;0.80;;;13.20;99.90;;;;;;5109975;28;20422;-84
2022/11/17 12:27:51;;;;;;;3.30;0.70;;;13.10;99.90;;;;;;5109597;28;20906;-84
2022/11/17 12:30:46;;;;;;;1.00;0.70;;;13.10;99.90;;;;;;5109890;28;20457;-84
2022/11/17 12:33:11;;;;;;;1.20;0.60;;;13.10;99.90;;;;;;5066888;28;20414;-84
2022/11/17 12:35:38;;;;;;;2.83;0.80;;;13.20;99.90;;;;;;5075781;28;20413;-84
2022/11/17 12:38:16;;;;;;;0.73;0.60;;;13.10;99.90;;;;;;5075983;28;20578;-84
2022/11/17 12:40:43;;;;;;;1.63;0.60;;;13.10;99.90;;;;;;5109167;28;20430;-83
2022/11/17 12:43:14;;;;;;;1.90;0.70;;;13.20;99.90;;;;;;5075683;28;20961;-84
2022/11/17 12:45:52;;;;;;;2.60;0.70;;;13.20;99.90;;;;;;5109088;28;20414;-84
2022/11/17 12:48:36;;;;;;;1.43;0.77;;;13.20;99.90;;;;;;5109110;28;20481;-83
2022/11/17 12:51:22;;;;;;;4.63;0.97;;;13.20;99.90;;;;;;5109081;28;20552;-84
2022/11/17 12:54:11;;;;;;;3.93;1.00;;;13.20;99.90;;;;;;5093424;28;20410;-83
2022/11/17 12:56:55;;;;;;;2.00;0.60;;;13.20;99.90;;;;;;5093649;28;20564;-85
2022/11/17 12:59:27;;;;;;;3.07;1.00;;;13.20;99.90;;;;;;5094296;28;20461;-83
2022/11/17 13:02:28;;;;;;;1.23;0.63;;;13.20;99.90;;;;;;5109628;28;20414;-83
2022/11/17 13:05:20;;;;;;;4.67;1.00;;;13.30;99.90;;;;;;5093884;28;20749;-85
2022/11/17 13:07:46;;;;;;;2.10;0.90;;;13.30;99.90;;;;;;5088011;28;20774;-84
2022/11/17 13:10:28;;;;;;;1.90;0.60;;;13.30;99.90;;;;;;5109394;28;20421;-84
2022/11/17 13:13:23;;;;;;;1.33;0.77;;;13.30;99.90;;;;;;5093802;28;20293;-84
2022/11/17 13:15:55;;;;;;;4.33;0.90;;;13.40;99.90;;;;;;5074346;28;20595;-84
2022/11/17 13:18:34;;;;;;;3.80;0.73;;;13.40;99.90;;;;;;5093991;28;20429;-84
2022/11/17 13:21:00;;;;;;;3.13;0.70;;;13.50;99.90;;;;;;5111832;28;20755;-84
2022/11/17 13:23:28;;;;;;;1.87;0.80;;;13.70;99.90;;;;;;5096190;28;20422;-84
2022/11/17 13:26:19;;;;;;;1.80;0.70;;;13.90;99.90;;;;;;5096900;28;20402;-84
2022/11/17 13:28:45;;;;;;;2.20;0.70;;;14.00;99.90;;;;;;5113228;28;20410;-84
2022/11/17 13:31:24;;;;;;;3.13;0.60;;;14.30;99.90;;;;;;5113076;28;20454;-84
2022/11/17 13:33:58;;;;;;;1.47;0.70;;;14.40;99.90;;;;;;5096928;28;20489;-84
2022/11/17 13:36:26;;;;;;;2.80;0.70;;;14.40;99.90;;;;;;5097005;28;20460;-84
2022/11/17 13:38:56;;;;;;;3.87;0.87;;;14.40;99.90;;;;;;5078601;28;20426;-84